Flight Track Log - Related Links

Times and Time Zones

All times are in EDT time to prevent confusion due to time zone crossing. See the N48DL flight status page for this flight to view local times or setup timezone preferences in your user account.

Time Position Orientation Groundspeed Altitude Reporting Facility
EDT Latitude Longitude Course Direction KTS MPH feet Rate Location/Type
Thu 07:43:51 AM 30.3108 -89.8281 200° South 141 162 3,200  Level Houston Center
Thu 07:45:10 AM 30.2633 -89.8481 148° Southeast 144 166 4,600 997 Climbing Houston Center
Thu 07:49:46 AM 30.0989 -89.7308 138° Southeast 148 170 9,100 982 Climbing Houston Center
Thu 07:50:46 AM 30.0669 -89.6978 150° Southeast 148 170 10,100 900 Climbing Houston Center
Thu 07:51:46 AM 30.0292 -89.6722 147° Southeast 153 176 10,900 793 Climbing Houston Center
Thu 07:52:47 AM 29.9911 -89.6442 141° Southeast 158 182 11,700 843 Climbing Houston Center
Thu 07:53:47 AM 29.9531 -89.6089 142° Southeast 163 188 12,600 958 Climbing Houston Center
Thu 07:54:46 AM 29.9169 -89.5761 140° Southeast 168 193 13,600 958 Climbing Houston Center
Thu 07:55:46 AM 29.8808 -89.5408 144° Southeast 173 199 14,500 900 Climbing Houston Center
Thu 07:56:46 AM 29.8450 -89.5106 145° Southeast 173 199 15,400 850 Climbing Houston Center
Thu 07:57:46 AM 29.8047 -89.4778 146° Southeast 173 199 16,200 744 Climbing Houston Center
Thu 07:58:47 AM 29.7625 -89.4453 143° Southeast 173 199 16,900 700 Climbing Houston Center
Thu 07:59:46 AM 29.7222 -89.4103 124° Southeast 173 199 17,600 650 Climbing Houston Center
Thu 08:00:47 AM 29.6900 -89.3561 114° Southeast 183 211 18,200 744 Climbing Houston Center
Thu 08:01:47 AM 29.6683 -89.3014 115° Southeast 188 216 19,100 800 Climbing Houston Center
Thu 08:02:47 AM 29.6464 -89.2469 118° Southeast 188 216 19,800 655 Climbing Houston Center
Thu 08:03:46 AM 29.6203 -89.1903 124° Southeast 193 222 20,400 600 Climbing Houston Center
Thu 08:04:47 AM 29.5881 -89.1361 123° Southeast 204 235 21,000 600 Climbing Houston Center
Thu 08:05:46 AM 29.5556 -89.0794 120° Southeast 210 242 21,600 600 Climbing Houston Center
Thu 08:06:47 AM 29.5253 -89.0183 117° Southeast 210 242 22,200 600 Climbing Houston Center
Thu 08:07:46 AM 29.4989 -88.9592 122° Southeast 210 242 22,800 600 Climbing Houston Center
Thu 08:08:47 AM 29.4686 -88.9028 121° Southeast 205 236 23,400 545 Climbing Houston Center
Thu 08:09:47 AM 29.4381 -88.8439 123° Southeast 205 236 23,900 504 Climbing Houston Center
Thu 08:10:46 AM 29.4036 -88.7828 121° Southeast 210 242 24,400 500 Climbing Houston Center
Thu 08:11:47 AM 29.3731 -88.7242 119° Southeast 210 242 24,900 446 Climbing Houston Center
Thu 08:12:47 AM 29.3425 -88.6606 120° Southeast 216 249 25,300 450 Climbing Houston Center
Thu 08:13:47 AM 29.3097 -88.5950 118° Southeast 222 255 25,800 465 Climbing Houston Center
Thu 08:15:22 AM 29.2628 -88.4950 123° Southeast 233 268 26,500 426 Climbing Jacksonville Center
Thu 08:16:22 AM 29.2300 -88.4361 122° Southeast 227 261 26,900 167 Climbing Jacksonville Center
Thu 08:18:22 AM 29.1583 -88.3061 121° Southeast 241 277 27,000 33 Climbing Jacksonville Center
Thu 08:19:23 AM 29.1217 -88.2375 118° Southeast 247 284 27,000  Level Jacksonville Center
Thu 08:20:23 AM 29.0872 -88.1619 117° Southeast 247 284 27,000  Level Jacksonville Center
Thu 08:21:23 AM 29.0547 -88.0892 125° Southeast 254 292 27,000  Level Jacksonville Center
Thu 08:22:23 AM 29.0175 -88.0278 124° Southeast 259 298 27,000  Level Jacksonville Center
Thu 08:23:23 AM 28.9783 -87.9617 120° Southeast 254 292 27,000  Level Jacksonville Center
Thu 08:24:22 AM 28.9436 -87.8936 122° Southeast 249 287 27,000 -50 Level Jacksonville Center
Thu 08:25:23 AM 28.9064 -87.8253 120° Southeast 244 281 26,900  Descending Jacksonville Center
Thu 08:26:23 AM 28.8717 -87.7572 116° Southeast 244 281 27,000 50 Climbing Jacksonville Center
Thu 08:27:23 AM 28.8486 -87.7039 124° Southeast 244 281 27,000  Level Jacksonville Center
Thu 08:28:23 AM 28.8072 -87.6333 123° Southeast 229 264 27,000 50 Level Jacksonville Center
Thu 08:29:23 AM 28.7681 -87.5650 122° Southeast 249 287 27,100 100 Climbing Jacksonville Center
Thu 08:30:23 AM 28.7308 -87.4969 121° Southeast 249 287 27,200 50 Climbing Jacksonville Center
Thu 08:31:23 AM 28.6978 -87.4339 122° Southeast 240 276 27,200 -100 Level Jacksonville Center
Thu 08:32:23 AM 28.6586 -87.3614 121° Southeast 248 285 27,000 -101 Descending Jacksonville Center
Thu 08:33:22 AM 28.6233 -87.2936 124° Southeast 248 285 27,000 50 Level Jacksonville Center
Thu 08:34:22 AM 28.5858 -87.2306 128° Southeast 253 291 27,100  Climbing Jacksonville Center
Thu 08:35:22 AM 28.5381 -87.1597 121° Southeast 255 293 27,000 -50 Descending Jacksonville Center
Thu 08:36:22 AM 28.5067 -87.0994 117° Southeast 249 287 27,000  Level Jacksonville Center
Thu 08:37:22 AM 28.4756 -87.0297 117° Southeast 251 289 27,000  Level Jacksonville Center
Thu 08:38:22 AM 28.4406 -86.9528 119° Southeast 263 303 27,000 50 Level Jacksonville Center
Thu 08:39:22 AM 28.4111 -86.8925 121° Southeast 244 281 27,100 100 Climbing Jacksonville Center
Thu 08:40:22 AM 28.3797 -86.8322 109° East 234 269 27,200 150 Climbing Jacksonville Center
Thu 08:41:22 AM 28.3569 -86.7583 106° East 234 269 27,400 200 Climbing Jacksonville Center
Thu 08:42:22 AM 28.3381 -86.6844 128° Southeast 234 269 27,600 -200 Climbing Jacksonville Center
Thu 08:43:22 AM 28.2981 -86.6264 133° Southeast 229 264 27,000 300 Descending Jacksonville Center
Thu 08:44:22 AM 28.2558 -86.5756 142° Southeast 229 264 28,200 700 Climbing Jacksonville Center
Thu 08:45:22 AM 28.2111 -86.5361 154° Southeast 214 246 28,400 200 Climbing Jacksonville Center
Thu 08:46:22 AM 28.1556 -86.5058 174° South 214 246 28,600 200 Climbing Jacksonville Center
Thu 08:47:22 AM 28.1014 -86.4992 187° South 208 239 28,800 200 Climbing Jacksonville Center
Thu 08:48:22 AM 28.0492 -86.5067 204° Southwest 202 232 29,000 150 Climbing Jacksonville Center
Thu 08:49:22 AM 28.0006 -86.5308 221° Southwest 197 227 29,100 150 Climbing Jacksonville Center
Thu 08:50:22 AM 27.9619 -86.5694 228° Southwest 189 217 29,300 250 Climbing Jacksonville Center
Thu 08:51:22 AM 27.9294 -86.6106 233° Southwest 183 211 29,600 250 Climbing Jacksonville Center
Thu 08:52:22 AM 27.9033 -86.6494 253° West 173 199 29,800 200 Climbing Jacksonville Center
Thu 08:53:22 AM 27.8892 -86.7006 253° West 168 193 30,000 200 Climbing Jacksonville Center
Thu 08:54:22 AM 27.8775 -86.7425 282° West 170 196 30,200 150 Climbing Jacksonville Center
Thu 08:55:22 AM 27.8900 -86.8086 290° West 174 200 30,300 99 Climbing Jacksonville Center
Thu 08:56:23 AM 27.9072 -86.8608 296° West 187 215 30,400 149 Climbing Jacksonville Center
Thu 08:57:23 AM 27.9247 -86.9017 287° West 168 193 30,600 150 Climbing Jacksonville Center
Thu 08:58:23 AM 27.9397 -86.9561 275° West 167 192 30,700 101 Climbing Jacksonville Center
Thu 08:59:22 AM 27.9442 -87.0128 249° West 178 205 30,800  Climbing Jacksonville Center
Thu 09:00:23 AM 27.9281 -87.0614 223° Southwest 173 199 30,700 -50 Descending Jacksonville Center
Thu 09:01:23 AM 27.8914 -87.0997 205° Southwest 173 199 30,700 -100 Level Jacksonville Center
Thu 09:02:23 AM 27.8425 -87.1258 172° South 180 207 30,500 -202 Descending Jacksonville Center
Thu 09:03:22 AM 27.7783 -87.1161 156° South 180 207 30,300 -150 Descending Jacksonville Center
Thu 09:04:23 AM 27.7228 -87.0881 129° Southeast 185 213 30,200 -149 Descending Jacksonville Center
Thu 09:05:23 AM 27.6750 -87.0206 106° East 231 266 30,000 -150 Descending Jacksonville Center
Thu 09:06:23 AM 27.6564 -86.9472 85° East 221 254 29,900 -101 Descending Jacksonville Center
Thu 09:07:22 AM 27.6631 -86.8678 65° Northeast 226 260 29,800 -101 Descending Jacksonville Center
Thu 09:08:22 AM 27.6947 -86.7917 39° Northeast 250 288 29,700 -99 Descending Jacksonville Center
Thu 09:09:23 AM 27.7461 -86.7444 North 236 272 29,600 -100 Descending Jacksonville Center
Thu 09:10:22 AM 27.8108 -86.7375 343° North 223 257 29,500 -50 Descending Jacksonville Center
Thu 09:11:23 AM 27.8708 -86.7586 318° Northwest 206 237 29,500 -50 Level Jacksonville Center
Thu 09:12:23 AM 27.9092 -86.7975 291° West 182 209 29,400  Descending Jacksonville Center
Thu 09:13:23 AM 27.9283 -86.8547 266° West 187 215 29,500 150 Climbing Jacksonville Center
Thu 09:14:23 AM 27.9247 -86.9086 240° Southwest 167 192 29,700 151 Climbing Jacksonville Center
Thu 09:15:22 AM 27.9000 -86.9569 215° Southwest 173 199 29,800 50 Climbing Jacksonville Center
Thu 09:16:23 AM 27.8572 -86.9903 178° South 182 209 29,800 -99 Level Jacksonville Center
Thu 09:17:23 AM 27.7928 -86.9878 166° South 182 209 29,600 -150 Descending Jacksonville Center
Thu 09:18:23 AM 27.7328 -86.9714 140° Southeast 203 234 29,500  Descending Jacksonville Center
Thu 09:19:22 AM 27.6861 -86.9272 115° Southeast 211 243 29,600  Climbing Jacksonville Center
Thu 09:20:22 AM 27.6572 -86.8558 88° East 216 249 29,500 -100 Descending Jacksonville Center
Thu 09:21:22 AM 27.6597 -86.7764 64° Northeast 230 265 29,400 -100 Descending Jacksonville Center
Thu 09:22:22 AM 27.6886 -86.7094 32° Northeast 223 257 29,300 -150 Descending Jacksonville Center
Thu 09:23:22 AM 27.7461 -86.6694 14° North 218 251 29,100 -200 Descending Jacksonville Center
Thu 09:24:22 AM 27.8050 -86.6531 347° North 208 239 28,900 -200 Descending Jacksonville Center
Thu 09:25:22 AM 27.8569 -86.6664 307° West 196 226 28,700 -250 Descending Jacksonville Center
Thu 09:26:22 AM 27.8928 -86.7194 275° West 180 207 28,400 -250 Descending Jacksonville Center
Thu 09:27:22 AM 27.8972 -86.7831 248° West 182 209 28,200 -100 Descending Jacksonville Center
Thu 09:28:22 AM 27.8767 -86.8408 223° Southwest 175 201 28,200 50 Level Jacksonville Center
Thu 09:29:22 AM 27.8314 -86.8886 180° South 198 228 28,300 50 Climbing Jacksonville Center
Thu 09:30:22 AM 27.7689 -86.8883 169° South 192 221 28,300  Level Jacksonville Center
Thu 09:31:22 AM 27.7025 -86.8742 124° Southeast 204 235 28,300  Level Jacksonville Center
Thu 09:32:22 AM 27.6608 -86.8044 112° Southeast 225 259 28,300  Level Jacksonville Center
Thu 09:33:22 AM 27.6378 -86.7403 84° East 216 249 28,300 50 Level Jacksonville Center
Thu 09:34:22 AM 27.6442 -86.6658 58° Northeast 216 249 28,400 -650 Climbing Jacksonville Center
Thu 09:35:22 AM 27.6794 -86.6014 31° Northeast 216 249 27,000 -700 Descending Jacksonville Center
Thu 09:36:22 AM 27.7325 -86.5658 12° North 210 242 27,000 550 Level Jacksonville Center
Thu 09:37:22 AM 27.7933 -86.5517 17° North 193 222 28,100  Climbing Jacksonville Center
Thu 09:38:22 AM 27.8419 -86.5347 287° West 193 222 27,000  Descending Jacksonville Center
Thu 09:39:22 AM 27.8700 -86.6389 271° West 214 246 28,100 550 Climbing Jacksonville Center
Thu 09:40:22 AM 27.8708 -86.6906 246° West 181 208 28,100  Level Jacksonville Center
Thu 09:41:22 AM 27.8481 -86.7483 217° Southwest 187 215 28,100 99 Level Jacksonville Center
Thu 09:42:23 AM 27.8053 -86.7842 203° Southwest 177 204 28,300 149 Climbing Jacksonville Center
Thu 09:43:23 AM 27.7544 -86.8081 180° South 188 216 28,400 200 Climbing Jacksonville Center
Thu 09:44:23 AM 27.6961 -86.8083 161° South 197 227 28,700 -700 Climbing Jacksonville Center
Thu 09:45:23 AM 27.6406 -86.7872 150° Southeast 197 227 27,000 -850 Descending Jacksonville Center
Thu 09:46:23 AM 27.5914 -86.7550 130° Southeast 206 237 27,000  Level Jacksonville Center
Thu 09:47:15 AM 27.5811 -86.6860 155° Southeast  Level FlightAware Approximate
Thu 09:48:23 AM 27.5153 -86.6517 104° East 213 245 27,000  Level Jacksonville Center
Thu 09:49:23 AM 27.4986 -86.5761 94° East 218 251 30,000 1,550 Climbing Jacksonville Center
Thu 09:50:23 AM 27.4944 -86.5011 70° East 224 258 30,100 100 Climbing Jacksonville Center
Thu 09:51:23 AM 27.5150 -86.4364 62° Northeast 228 262 30,200 100 Climbing Jacksonville Center
Thu 09:52:23 AM 27.5483 -86.3650 36° Northeast 228 262 30,300 150 Climbing Jacksonville Center
Thu 09:53:23 AM 27.5972 -86.3244 37° Northeast 229 264 30,500 100 Climbing Jacksonville Center
Thu 09:54:23 AM 27.6506 -86.2794 347° North 216 249 30,500 50 Level Jacksonville Center
Thu 09:55:23 AM 27.7150 -86.2958 341° North 202 232 30,600 150 Climbing Jacksonville Center
Thu 09:56:23 AM 27.7664 -86.3161 317° Northwest 196 226 30,800 150 Climbing Jacksonville Center
Thu 09:57:23 AM 27.8050 -86.3575 291° West 184 212 30,900 50 Climbing Jacksonville Center
Thu 09:58:23 AM 27.8225 -86.4094 258° West 178 205 30,900  Level Jacksonville Center
Thu 09:59:23 AM 27.8125 -86.4608 235° Southwest 168 193 30,900  Level Jacksonville Center
Thu 10:00:23 AM 27.7842 -86.5067 206° Southwest 162 186 30,900 50 Level Jacksonville Center
Thu 10:01:23 AM 27.7397 -86.5308 183° South 168 193 31,000 100 Climbing Jacksonville Center
Thu 10:02:23 AM 27.6856 -86.5336 163° South 174 200 31,100 150 Climbing Jacksonville Center
Thu 10:03:23 AM 27.6317 -86.5153 140° Southeast 186 214 31,300 151 Climbing Jacksonville Center
Thu 10:04:22 AM 27.5850 -86.4717 114° Southeast 199 229 31,400 50 Climbing Jacksonville Center
Thu 10:05:22 AM 27.5597 -86.4075 93° East 202 232 31,400  Level Jacksonville Center
Thu 10:06:23 AM 27.5556 -86.3303 72° East 222 255 31,400  Level Jacksonville Center
Thu 10:07:22 AM 27.5783 -86.2514 39° Northeast 215 247 31,400 -101 Level Jacksonville Center
Thu 10:08:22 AM 27.6297 -86.2039 26° Northeast 230 265 31,200 -150 Descending Jacksonville Center
Thu 10:09:22 AM 27.6931 -86.1683 354° North 224 258 31,100 -149 Descending Jacksonville Center
Thu 10:10:23 AM 27.7556 -86.1753 326° Northwest 217 250 30,900 -200 Descending Jacksonville Center
Thu 10:11:22 AM 27.8067 -86.2144 296° West 209 241 30,700 -200 Descending Jacksonville Center
Thu 10:12:23 AM 27.8322 -86.2739 266° West 202 232 30,500 -250 Descending Jacksonville Center
Thu 10:13:22 AM 27.8286 -86.3278 243° Southwest 175 201 30,200 -252 Descending Jacksonville Center
Thu 10:14:22 AM 27.8000 -86.3900 202° Southwest 182 209 30,000 -100 Descending Jacksonville Center
Thu 10:15:22 AM 27.7472 -86.4139 182° South 190 219 30,000 50 Level Jacksonville Center
Thu 10:16:22 AM 27.6886 -86.4167 154° Southeast 190 219 30,100 99 Climbing Jacksonville Center
Thu 10:17:23 AM 27.6333 -86.3867 132° Southeast 195 224 30,200 150 Climbing Jacksonville Center
Thu 10:18:22 AM 27.5908 -86.3339 110° East 207 238 30,400 202 Climbing Jacksonville Center
Thu 10:19:22 AM 27.5697 -86.2675 92° East 212 244 30,600 150 Climbing Jacksonville Center
Thu 10:20:22 AM 27.5675 -86.1856 66° East 228 262 30,700 149 Climbing Jacksonville Center
Thu 10:21:23 AM 27.5922 -86.1231 52° Northeast 224 258 30,900 149 Climbing Jacksonville Center
Thu 10:22:23 AM 27.6333 -86.0636 33° Northeast 219 252 31,000 100 Climbing Jacksonville Center
Thu 10:23:23 AM 27.6883 -86.0231 North 219 252 31,100 50 Climbing Jacksonville Center
Thu 10:24:23 AM 27.7492 -86.0133 343° North 212 244 31,100 50 Level Jacksonville Center
Thu 10:25:23 AM 27.8069 -86.0339 323° Northwest 206 237 31,200 50 Climbing Jacksonville Center
Thu 10:26:23 AM 27.8500 -86.0703 293° West 193 222 31,200  Level Jacksonville Center
Thu 10:27:23 AM 27.8694 -86.1225 269° West 173 199 31,200 50 Level Jacksonville Center
Thu 10:28:23 AM 27.8683 -86.1742 232° Southwest 162 186 31,300 167 Climbing Jacksonville Center
Thu 10:30:23 AM 27.8075 -86.2636 190° South 176 203 31,700 133 Climbing Jacksonville Center
Thu 10:31:23 AM 27.7572 -86.2736 166° South 176 203 31,700 50 Level Jacksonville Center
Thu 10:32:23 AM 27.6992 -86.2578 140° Southeast 176 203 31,800 50 Climbing Jacksonville Center
Thu 10:33:23 AM 27.6503 -86.2117 120° Southeast 199 229 31,800  Level Jacksonville Center
Thu 10:34:23 AM 27.6167 -86.1450 97° East 219 252 31,800 50 Level Jacksonville Center
Thu 10:35:23 AM 27.6081 -86.0675 74° East 228 262 31,900  Climbing Jacksonville Center
Thu 10:36:23 AM 27.6264 -85.9956 47° Northeast 228 262 31,800 -50 Descending Jacksonville Center
Thu 10:37:23 AM 27.6739 -85.9383 27° Northeast 222 255 31,800 -50 Level Jacksonville Center
Thu 10:38:23 AM 27.7331 -85.9050 352° North 222 255 31,700 -91 Descending Jacksonville Center
Thu 10:39:35 AM 27.8097 -85.9167 326° Northwest 213 245 31,600 -91 Descending Jacksonville Center
Thu 10:40:35 AM 27.8550 -85.9508 291° West 189 217 31,500 -100 Descending Jacksonville Center
Thu 10:41:35 AM 27.8744 -86.0078 259° West 175 201 31,400 -100 Descending Jacksonville Center
Thu 10:42:35 AM 27.8647 -86.0636 221° Southwest 175 201 31,300 -100 Descending Jacksonville Center
Thu 10:43:35 AM 27.8261 -86.1022 196° South 160 184 31,200 -50 Descending Jacksonville Center
Thu 10:44:35 AM 27.7717 -86.1194 170° South 170 196 31,200 50 Level Jacksonville Center
Thu 10:45:34 AM 27.7133 -86.1083 147° Southeast 186 214 31,300 150 Climbing Jacksonville Center
Thu 10:46:35 AM 27.6622 -86.0714 123° Southeast 194 223 31,500 200 Climbing Jacksonville Center
Thu 10:47:34 AM 27.6261 -86.0094 102° East 215 247 31,700 200 Climbing Jacksonville Center
Thu 10:48:35 AM 27.6133 -85.9411 83° East 215 247 31,900 149 Climbing Jacksonville Center
Thu 10:49:35 AM 27.6214 -85.8642 63° Northeast 234 269 32,000 100 Climbing Jacksonville Center
Thu 10:50:35 AM 27.6519 -85.7972 45° Northeast 224 258 32,100 100 Climbing Jacksonville Center
Thu 10:51:35 AM 27.6992 -85.7444 15° North 216 249 32,200 50 Climbing Jacksonville Center
Thu 10:52:35 AM 27.7619 -85.7253 359° North 223 257 32,200  Level Jacksonville Center
Thu 10:53:34 AM 27.8203 -85.7269 327° Northwest 207 238 32,200 50 Level Jacksonville Center
Thu 10:54:34 AM 27.8697 -85.7633 305° West 196 226 32,300 99 Climbing Jacksonville Center
Thu 10:55:35 AM 27.8978 -85.8089 278° West 188 216 32,400 99 Climbing Jacksonville Center
Thu 10:56:35 AM 27.9050 -85.8653 244° Southwest 170 196 32,500 50 Climbing Jacksonville Center
Thu 10:57:35 AM 27.8850 -85.9117 219° Southwest 159 183 32,500  Level Jacksonville Center
Thu 10:58:35 AM 27.8425 -85.9503 183° South 166 191 32,500  Level Jacksonville Center
Thu 10:59:35 AM 27.7861 -85.9533 164° South 175 201 32,500  Level Jacksonville Center
Thu 11:00:35 AM 27.7303 -85.9353 135° Southeast 185 213 32,500 50 Level Jacksonville Center
Thu 11:01:35 AM 27.6833 -85.8825 114° Southeast 213 245 32,600 100 Climbing Jacksonville Center
Thu 11:02:35 AM 27.6558 -85.8136 90° East 213 245 32,700 50 Climbing Jacksonville Center
Thu 11:03:35 AM 27.6553 -85.7433 69° East 221 254 32,700  Level Jacksonville Center
Thu 11:04:35 AM 27.6819 -85.6667 45° Northeast 228 262 32,700 50 Level Jacksonville Center
Thu 11:05:35 AM 27.7269 -85.6164 23° Northeast 217 250 32,800 50 Climbing Jacksonville Center
Thu 11:06:35 AM 27.7836 -85.5897 359° North 217 250 32,800  Level Jacksonville Center
Thu 11:07:35 AM 27.8464 -85.5914 333° Northwest 207 238 32,800 -50 Level Jacksonville Center
Thu 11:08:35 AM 27.8936 -85.6186 297° West 191 220 32,700 -50 Descending Jacksonville Center
Thu 11:09:35 AM 27.9175 -85.6708 266° West 171 197 32,700 -100 Level Jacksonville Center
Thu 11:10:35 AM 27.9144 -85.7200 240° Southwest 162 186 32,500 -150 Descending Jacksonville Center
Thu 11:11:35 AM 27.8861 -85.7756 201° Southwest 164 189 32,400 -50 Descending Jacksonville Center
Thu 11:12:35 AM 27.8356 -85.7978 181° South 175 201 32,400 100 Level Jacksonville Center
Thu 11:13:35 AM 27.7792 -85.7983 158° South 175 201 32,600 150 Climbing Jacksonville Center
Thu 11:14:35 AM 27.7256 -85.7733 129° Southeast 185 213 32,700 50 Climbing Jacksonville Center
Thu 11:15:35 AM 27.6831 -85.7136 104° East 191 220 32,700  Level Jacksonville Center
Thu 11:16:35 AM 27.6678 -85.6431 82° East 206 237 32,700 -50 Level Jacksonville Center
Thu 11:17:35 AM 27.6781 -85.5589 58° Northeast 237 273 32,600 -50 Descending Jacksonville Center
Thu 11:18:35 AM 27.7169 -85.4872 28° Northeast 232 267 32,600 -50 Level Jacksonville Center
Thu 11:19:35 AM 27.7739 -85.4536 North 233 268 32,500 -50 Descending Jacksonville Center
Thu 11:20:35 AM 27.8367 -85.4481 346° North 209 241 32,500  Level Jacksonville Center
Thu 11:21:34 AM 27.8928 -85.4636 314° West 201 231 32,500  Level Jacksonville Center
Thu 11:22:34 AM 27.9314 -85.5092 279° West 188 216 32,500 -50 Level Jacksonville Center
Thu 11:23:34 AM 27.9386 -85.5611 252° West 171 197 32,400 -50 Descending Jacksonville Center
Thu 11:24:34 AM 27.9208 -85.6217 211° Southwest 177 204 32,400  Level Jacksonville Center
Thu 11:25:34 AM 27.8783 -85.6511 191° South 164 189 32,400  Level Jacksonville Center
Thu 11:26:34 AM 27.8239 -85.6636 163° South 174 200 32,400 50 Level Jacksonville Center
Thu 11:27:34 AM 27.7658 -85.6433 136° Southeast 185 213 32,500 99 Climbing Jacksonville Center
Thu 11:28:35 AM 27.7211 -85.5953 114° Southeast 194 223 32,600 99 Climbing Jacksonville Center
Thu 11:29:35 AM 27.6953 -85.5289 89° East 208 239 32,700 50 Climbing Jacksonville Center
Thu 11:30:34 AM 27.6969 -85.4492 66° East 225 259 32,700  Level Jacksonville Center
Thu 11:31:34 AM 27.7253 -85.3772 58° Northeast 220 253 32,700 149 Level Jacksonville Center
Thu 11:32:35 AM 27.7642 -85.3081 North 222 255 33,000  Climbing Jacksonville Center
Thu 11:33:35 AM 27.8353 -85.2978 353° North 217 250 32,700 -150 Descending Jacksonville Center
Thu 11:34:35 AM 27.8978 -85.3064 318° Northwest 199 229 32,700 -50 Level Jacksonville Center
Thu 11:35:35 AM 27.9408 -85.3497 295° West 187 215 32,600 150 Descending Jacksonville Center
Thu 11:36:35 AM 27.9628 -85.4019 256° West 174 200 33,000 -50 Climbing Jacksonville Center
Thu 11:37:35 AM 27.9514 -85.4533 231° Southwest 160 184 32,500  Descending Jacksonville Center
Thu 11:38:35 AM 27.9169 -85.5017 192° South 184 212 33,000 250 Climbing Jacksonville Center
Thu 11:39:35 AM 27.8625 -85.5144 167° South 167 192 33,000 -250 Level Jacksonville Center
Thu 11:40:35 AM 27.8044 -85.4989 142° Southeast 180 207 32,500 -250 Descending Jacksonville Center
Thu 11:41:35 AM 27.7531 -85.4531 114° Southeast 204 235 32,500  Level Jacksonville Center
Thu 11:42:35 AM 27.7253 -85.3819 89° East 210 242 32,500 -50 Level Jacksonville Center
Thu 11:43:35 AM 27.7267 -85.3047 85° East 226 260 32,400 -150 Descending Jacksonville Center
Thu 11:44:35 AM 27.7322 -85.2392 108° East 220 253 32,200 -500 Descending Jacksonville Center
Thu 11:45:35 AM 27.7183 -85.1919 147° Southeast 191 220 31,400 -900 Descending Jacksonville Center
Thu 11:46:35 AM 27.6814 -85.1653 224° Southwest 158 182 30,400 -950 Descending Jacksonville Center
Thu 11:47:35 AM 27.6472 -85.2019 286° West 121 139 29,500 -900 Descending Jacksonville Center
Thu 11:48:35 AM 27.6569 -85.2397 345° North 109 125 28,600 -850 Descending Jacksonville Center
Thu 11:49:35 AM 27.6986 -85.2525 38° Northeast 100 115 27,800 -800 Descending Jacksonville Center
Thu 11:50:35 AM 27.7347 -85.2206 94° East 105 121 27,000 -800 Descending Jacksonville Center
Thu 11:51:35 AM 27.7314 -85.1619 139° Southeast 124 143 26,200 -800 Descending Jacksonville Center
Thu 11:52:35 AM 27.6967 -85.1283 215° Southwest 132 152 25,400 -800 Descending Jacksonville Center
Thu 11:53:35 AM 27.6650 -85.1533 279° West 113 130 24,600 -800 Descending Jacksonville Center
Thu 11:54:35 AM 27.6706 -85.1933 North 81 93 23,800 -750 Descending Jacksonville Center
Thu 11:55:35 AM 27.7081 -85.1917 79° East 72 83 23,100 -1,250 Descending Jacksonville Center
Thu 11:56:35 AM 27.7125 -85.1661 70° East 94 108 21,300 -1,300 Descending Jacksonville Center
Thu 11:57:35 AM 27.7169 -85.1519 103° East 40 46 20,500 -1,600 Descending Jacksonville Center
Thu 11:58:35 AM 27.7131 -85.1333 249° West 40 46 18,100 6,250 Descending Jacksonville Center
Thu 11:59:35 AM 27.7022 -85.1658 268° West 41 47 33,000 -1,462 Climbing Jacksonville Center
Thu 12:00:34 PM 27.7019 -85.1753 280° West 42 48 15,200 -9,983 Descending Jacksonville Center
Thu 12:01:34 PM 27.7075 -85.2128 327° Northwest 77 89 13,200 -1,900 Descending Jacksonville Center
Thu 12:02:34 PM 27.7242 -85.2250 353° North 82 94 11,400 -1,785 Descending Jacksonville Center
Thu 12:03:35 PM 27.7450 -85.2278 314° West 81 93 9,600 10,711 Descending Jacksonville Center
Thu 12:04:35 PM 27.7611 -85.2469 324° Northwest 81 93 33,000 11,700 Climbing Jacksonville Center
Thu 12:05:35 PM 27.7756 -85.2589 327° Northwest 81 93 33,000  Level Jacksonville Center
Thu 12:06:35 PM 27.7922 -85.2711 323° Northwest 81 93 33,000  Level Jacksonville Center
Thu 12:07:35 PM 27.8064 -85.2831 332° Northwest 81 93 33,000  Level Jacksonville Center
Thu 12:08:35 PM 27.8106 -85.2856 360° North 81 93 33,000  Level Jacksonville Center
Thu 12:09:35 PM 27.8106 -85.2856 360° North 81 93 33,000  Level Jacksonville Center
Thu 12:10:35 PM 27.8106 -85.2856 360° North 81 93 33,000  Level Jacksonville Center
Thu 12:11:35 PM 27.8106 -85.2856 360° North 81 93 33,000  Level Jacksonville Center
Thu 12:12:35 PM 27.8106 -85.2856 360° North 81 93 33,000  Level Jacksonville Center
Thu 12:13:35 PM 27.8106 -85.2856 360° North 81 93 33,000  Level Jacksonville Center
Thu 12:14:35 PM 27.8106 -85.2856 360° North 81 93 33,000  Level Jacksonville Center
Thu 12:15:35 PM 27.8106 -85.2856 360° North 81 93 33,000  Level Jacksonville Center

Login

Don't have an account? Register now (free) for customized features, flight alerts, and more!